Time;durP1;ratioP1;P1;durP2;ratioP2;P2;SDS_P1;SDS_P2;PMS_P1;PMS_P2;Temp;Humidity;BMP_temperature;BMP_pressure;BME280_temperature;BME280_humidity;BME280_pressure;Samples;Min_cycle;Max_cycle;Signal;HPM_P1;HPM_P2
2023/06/17 00:00:09;;;;;;;7.70;3.30;;;16.60;72.30;;;;;;5028280;28;20038;-72
2023/06/17 00:02:35;;;;;;;5.57;3.47;;;16.50;72.60;;;;;;5026336;28;20025;-74
2023/06/17 00:05:02;;;;;;;6.43;3.33;;;16.40;72.90;;;;;;5031951;28;20463;-74
2023/06/17 00:07:28;;;;;;;6.32;3.03;;;16.40;73.10;;;;;;5016055;28;20072;-74
2023/06/17 00:09:54;;;;;;;8.13;2.90;;;16.30;73.30;;;;;;5022072;28;20013;-73
2023/06/17 00:12:21;;;;;;;4.70;3.28;;;16.30;73.40;;;;;;5026147;28;20033;-73
2023/06/17 00:14:47;;;;;;;7.05;3.40;;;16.30;73.40;;;;;;5031700;28;20018;-73
2023/06/17 00:17:14;;;;;;;7.13;4.10;;;16.20;73.60;;;;;;5005276;28;20029;-74
2023/06/17 00:19:40;;;;;;;6.35;3.22;;;16.10;73.90;;;;;;5023658;28;20091;-73
2023/06/17 00:22:08;;;;;;;6.70;3.35;;;16.10;74.10;;;;;;5013970;28;20033;-73
2023/06/17 00:24:34;;;;;;;8.15;3.33;;;16.10;74.30;;;;;;5013705;28;20080;-74
2023/06/17 00:27:00;;;;;;;6.28;3.20;;;16.00;74.50;;;;;;5040933;28;20048;-73
2023/06/17 00:29:29;;;;;;;7.55;3.65;;;16.00;74.80;;;;;;5028667;28;20022;-73
2023/06/17 00:31:54;;;;;;;7.43;3.33;;;15.90;75.00;;;;;;5040166;28;20032;-73
2023/06/17 00:34:20;;;;;;;8.23;2.90;;;15.90;75.10;;;;;;5034755;28;20029;-73
2023/06/17 00:36:46;;;;;;;8.63;3.35;;;15.80;75.30;;;;;;5030375;28;20459;-73
2023/06/17 00:39:13;;;;;;;11.15;3.42;;;15.80;75.50;;;;;;5031159;28;20033;-75
2023/06/17 00:41:39;;;;;;;4.78;3.40;;;15.70;75.60;;;;;;5032487;28;20025;-73
2023/06/17 00:44:04;;;;;;;10.90;3.72;;;15.60;75.90;;;;;;5028106;28;20107;-73
2023/06/17 00:46:30;;;;;;;7.07;3.45;;;15.50;76.00;;;;;;5028007;28;20849;-74
2023/06/17 00:48:56;;;;;;;8.48;3.30;;;15.40;76.30;;;;;;5033585;28;20112;-74
2023/06/17 00:51:21;;;;;;;8.00;3.45;;;15.40;76.50;;;;;;5026846;28;20024;-74
2023/06/17 00:53:47;;;;;;;5.95;2.95;;;15.30;76.70;;;;;;5026055;28;20030;-74
2023/06/17 00:56:13;;;;;;;6.55;3.42;;;15.40;76.90;;;;;;5038296;28;20040;-74
2023/06/17 00:58:39;;;;;;;9.73;3.92;;;15.20;76.90;;;;;;5024006;28;20021;-74
2023/06/17 01:01:05;;;;;;;10.55;3.67;;;15.20;77.00;;;;;;5034167;28;20032;-74
2023/06/17 01:03:31;;;;;;;7.30;3.70;;;15.10;77.30;;;;;;5034575;28;20045;-74
2023/06/17 01:06:01;;;;;;;4.95;3.05;;;15.00;77.80;;;;;;5034227;28;20452;-74
2023/06/17 01:08:40;;;;;;;8.90;3.90;;;15.00;78.10;;;;;;5033877;28;20108;-73
2023/06/17 01:11:10;;;;;;;8.52;3.65;;;15.00;78.40;;;;;;5034002;28;20037;-74
2023/06/17 01:13:36;;;;;;;9.25;3.97;;;14.90;78.50;;;;;;5034527;28;20071;-75
2023/06/17 01:16:03;;;;;;;11.23;3.72;;;14.80;78.70;;;;;;5033606;28;20021;-73
2023/06/17 01:18:33;;;;;;;10.10;3.75;;;14.80;79.00;;;;;;5033082;28;20040;-73
2023/06/17 01:20:59;;;;;;;6.72;3.80;;;14.80;79.30;;;;;;5033011;28;20057;-72
2023/06/17 01:23:32;;;;;;;5.72;3.63;;;14.80;79.60;;;;;;5033089;28;20029;-72
2023/06/17 01:25:58;;;;;;;9.68;3.35;;;14.70;79.70;;;;;;5015425;28;20117;-72
2023/06/17 01:28:24;;;;;;;7.65;3.55;;;14.70;80.00;;;;;;5033166;28;20174;-73
2023/06/17 01:30:54;;;;;;;6.65;3.72;;;14.70;80.20;;;;;;5032954;28;20028;-72
2023/06/17 01:33:21;;;;;;;7.13;3.33;;;14.60;80.20;;;;;;5033203;28;20100;-72
2023/06/17 01:36:04;;;;;;;9.77;4.05;;;14.50;80.20;;;;;;5033120;28;20108;-74
2023/06/17 01:38:37;;;;;;;7.85;3.83;;;14.50;80.60;;;;;;5033127;28;20473;-72
2023/06/17 01:41:09;;;;;;;9.07;3.80;;;14.40;80.70;;;;;;5032749;28;20035;-72
2023/06/17 01:43:36;;;;;;;11.35;3.63;;;14.40;80.90;;;;;;5014901;28;20120;-72
2023/06/17 01:46:04;;;;;;;6.60;3.83;;;14.40;81.10;;;;;;5032753;28;20059;-73
2023/06/17 01:48:29;;;;;;;5.13;3.53;;;14.30;81.30;;;;;;5032836;28;20021;-74
2023/06/17 01:50:55;;;;;;;6.85;3.92;;;14.30;81.60;;;;;;5014988;28;20017;-73
2023/06/17 01:53:22;;;;;;;5.63;3.58;;;14.20;81.80;;;;;;5032219;28;20024;-74
2023/06/17 01:55:48;;;;;;;6.35;4.07;;;14.20;82.00;;;;;;5032986;28;20023;-73
2023/06/17 01:58:15;;;;;;;10.70;3.90;;;14.10;82.10;;;;;;5032153;28;20459;-73
2023/06/17 02:00:40;;;;;;;10.60;3.85;;;14.00;82.30;;;;;;5032577;28;20021;-74
2023/06/17 02:03:06;;;;;;;8.27;3.85;;;13.90;83.20;;;;;;5032330;28;20021;-74
2023/06/17 02:05:32;;;;;;;10.50;3.85;;;13.90;82.90;;;;;;5032242;28;20021;-74
2023/06/17 02:07:59;;;;;;;9.98;3.65;;;13.80;83.20;;;;;;5032416;28;20032;-74
2023/06/17 02:10:25;;;;;;;9.32;3.42;;;13.80;83.50;;;;;;5032284;28;20487;-73
2023/06/17 02:12:51;;;;;;;5.80;3.90;;;13.70;83.80;;;;;;5031956;28;20033;-73
2023/06/17 02:15:16;;;;;;;7.57;3.97;;;13.70;84.20;;;;;;5031601;28;20040;-74
2023/06/17 02:17:42;;;;;;;6.05;3.78;;;13.70;84.50;;;;;;5032102;28;20032;-73
2023/06/17 02:20:10;;;;;;;9.63;4.10;;;13.70;84.80;;;;;;5032272;28;20037;-74
2023/06/17 02:22:36;;;;;;;6.15;3.95;;;13.60;85.00;;;;;;5032324;28;20080;-73
2023/06/17 02:25:03;;;;;;;9.85;4.43;;;13.60;85.50;;;;;;5032198;28;20109;-74
2023/06/17 02:27:29;;;;;;;8.40;3.95;;;13.60;85.90;;;;;;5032199;28;20072;-73
2023/06/17 02:29:54;;;;;;;6.20;3.92;;;13.60;86.40;;;;;;5032301;28;20037;-73
2023/06/17 02:32:20;;;;;;;10.07;4.55;;;13.60;86.90;;;;;;5031824;28;20017;-73
2023/06/17 02:34:48;;;;;;;8.10;4.65;;;13.50;87.30;;;;;;5031882;28;20068;-73
2023/06/17 02:37:14;;;;;;;7.03;3.85;;;13.50;88.00;;;;;;5014337;28;20029;-72
2023/06/17 02:39:40;;;;;;;10.35;4.88;;;13.50;88.60;;;;;;5032162;28;20021;-74
2023/06/17 02:42:11;;;;;;;7.50;4.30;;;13.40;89.40;;;;;;5031785;28;20025;-73
2023/06/17 02:44:37;;;;;;;7.10;4.15;;;13.30;90.00;;;;;;5032013;28;20028;-73
2023/06/17 02:47:03;;;;;;;7.00;4.22;;;13.20;90.50;;;;;;5030937;28;20033;-73
2023/06/17 02:49:29;;;;;;;6.07;4.50;;;13.10;91.10;;;;;;5032111;28;20052;-73
2023/06/17 02:51:54;;;;;;;10.07;4.80;;;13.10;91.70;;;;;;5014251;28;20057;-73
2023/06/17 02:54:20;;;;;;;7.00;3.90;;;13.10;92.30;;;;;;5031676;28;20546;-74
2023/06/17 02:56:46;;;;;;;8.02;4.03;;;13.10;92.80;;;;;;5031760;28;20456;-72
2023/06/17 02:59:14;;;;;;;7.97;4.45;;;13.00;93.30;;;;;;5014074;28;20025;-73
2023/06/17 03:01:42;;;;;;;9.50;4.25;;;13.00;93.70;;;;;;5031949;28;20096;-72
2023/06/17 03:04:10;;;;;;;6.75;4.25;;;12.90;94.00;;;;;;5031795;28;20022;-73
2023/06/17 03:06:36;;;;;;;10.15;4.60;;;12.80;94.60;;;;;;5032142;28;20021;-72
2023/06/17 03:09:03;;;;;;;7.93;4.40;;;12.70;95.00;;;;;;5031835;28;20025;-73
2023/06/17 03:11:29;;;;;;;7.63;4.00;;;12.70;95.50;;;;;;5031341;28;20063;-73
2023/06/17 03:13:55;;;;;;;7.18;3.75;;;12.70;96.10;;;;;;5031582;28;20152;-73
2023/06/17 03:16:24;;;;;;;7.10;4.10;;;12.60;96.50;;;;;;5030203;28;20033;-73
2023/06/17 03:18:49;;;;;;;12.52;3.70;;;12.60;97.00;;;;;;5013980;28;20451;-73
2023/06/17 03:21:15;;;;;;;9.63;4.10;;;12.70;97.20;;;;;;5031494;28;20126;-73
2023/06/17 03:23:41;;;;;;;6.30;4.03;;;12.60;97.50;;;;;;5032190;28;20367;-73
2023/06/17 03:26:09;;;;;;;7.05;3.80;;;12.70;98.00;;;;;;5031210;28;20020;-72
2023/06/17 03:28:35;;;;;;;13.63;4.43;;;12.70;98.40;;;;;;5032014;28;20051;-73
2023/06/17 03:31:02;;;;;;;8.63;4.18;;;12.70;98.70;;;;;;5031401;28;20079;-74
2023/06/17 03:33:28;;;;;;;6.22;3.83;;;12.70;98.90;;;;;;5031682;28;20026;-73
2023/06/17 03:35:53;;;;;;;6.50;3.90;;;12.70;99.20;;;;;;5031486;28;20058;-75
2023/06/17 03:38:19;;;;;;;9.27;4.45;;;12.70;99.50;;;;;;5031109;28;20187;-74
2023/06/17 03:40:45;;;;;;;10.13;3.97;;;12.70;99.80;;;;;;5013564;28;20029;-74
2023/06/17 03:43:13;;;;;;;9.80;4.25;;;12.70;99.90;;;;;;5029815;28;20025;-73
2023/06/17 03:45:39;;;;;;;7.90;3.88;;;12.70;99.90;;;;;;5025941;28;20049;-73
2023/06/17 03:48:05;;;;;;;6.97;4.10;;;12.70;99.90;;;;;;4994129;28;20193;-72
2023/06/17 03:50:31;;;;;;;6.32;4.57;;;12.60;99.90;;;;;;5011811;28;20384;-73
2023/06/17 03:52:57;;;;;;;6.75;4.32;;;12.60;99.90;;;;;;5011014;28;20026;-72
2023/06/17 03:55:24;;;;;;;6.28;4.63;;;12.50;99.90;;;;;;5011258;28;20029;-74
2023/06/17 03:57:50;;;;;;;5.35;3.80;;;12.50;99.90;;;;;;5011357;28;20068;-73
2023/06/17 04:00:16;;;;;;;7.50;4.40;;;12.50;99.90;;;;;;5012122;28;20108;-72
2023/06/17 04:02:45;;;;;;;8.95;4.60;;;12.40;99.90;;;;;;5012375;28;20500;-72
2023/06/17 04:05:12;;;;;;;5.80;4.32;;;12.40;99.90;;;;;;5011258;28;20033;-72
2023/06/17 04:07:38;;;;;;;6.68;4.30;;;12.40;99.90;;;;;;5011029;28;20025;-72
2023/06/17 04:10:06;;;;;;;6.65;4.65;;;12.30;99.90;;;;;;5011226;28;20033;-72
2023/06/17 04:12:32;;;;;;;6.35;4.47;;;12.20;99.90;;;;;;5010894;28;20026;-74
2023/06/17 04:14:58;;;;;;;8.10;4.72;;;12.20;99.90;;;;;;5011396;28;20438;-73
2023/06/17 04:17:24;;;;;;;9.60;3.92;;;12.10;99.90;;;;;;4997054;28;20129;-72
2023/06/17 04:19:49;;;;;;;5.97;4.28;;;12.00;99.90;;;;;;5014677;28;20082;-73
2023/06/17 04:22:15;;;;;;;7.45;4.65;;;12.00;99.90;;;;;;5014269;28;20022;-72
2023/06/17 04:24:41;;;;;;;9.60;4.72;;;11.90;99.90;;;;;;5014671;28;20112;-74
2023/06/17 04:27:07;;;;;;;8.20;4.13;;;11.80;99.90;;;;;;5014109;28;20411;-72
2023/06/17 04:29:34;;;;;;;5.72;4.38;;;11.80;99.90;;;;;;5034285;28;20440;-72
2023/06/17 04:32:01;;;;;;;9.82;4.38;;;11.80;99.90;;;;;;5034655;28;20028;-72
2023/06/17 04:34:27;;;;;;;7.70;4.05;;;11.80;99.90;;;;;;5034693;28;20471;-72
2023/06/17 04:36:58;;;;;;;8.38;3.95;;;11.80;99.90;;;;;;5033923;28;20024;-72
2023/06/17 04:39:26;;;;;;;7.13;5.07;;;11.90;99.90;;;;;;5033933;28;20026;-72
2023/06/17 04:41:52;;;;;;;10.45;4.20;;;11.90;99.90;;;;;;5033757;28;20044;-72
2023/06/17 04:44:17;;;;;;;8.57;4.47;;;12.00;99.90;;;;;;5033828;28;20029;-72
2023/06/17 04:46:43;;;;;;;5.82;3.92;;;12.00;99.90;;;;;;5033391;28;20032;-72
2023/06/17 04:49:10;;;;;;;6.15;4.18;;;12.10;99.90;;;;;;5034414;28;20028;-72
2023/06/17 04:51:38;;;;;;;7.03;4.50;;;12.10;99.90;;;;;;5034042;28;20104;-74
2023/06/17 04:54:07;;;;;;;7.38;4.30;;;12.10;99.90;;;;;;5033499;28;20025;-71
2023/06/17 04:56:32;;;;;;;7.53;4.18;;;12.10;99.90;;;;;;5034088;28;20025;-74
2023/06/17 04:58:58;;;;;;;9.25;4.57;;;12.10;99.90;;;;;;5033984;28;20099;-74
2023/06/17 05:01:24;;;;;;;8.43;4.97;;;12.10;99.90;;;;;;5033913;28;20068;-73
2023/06/17 05:03:50;;;;;;;8.25;4.68;;;12.00;99.90;;;;;;5016503;28;20447;-74
2023/06/17 05:06:15;;;;;;;10.80;4.55;;;12.00;99.90;;;;;;5033165;28;20025;-74
2023/06/17 05:08:41;;;;;;;7.30;4.32;;;12.00;99.90;;;;;;5033312;28;20029;-73
2023/06/17 05:11:07;;;;;;;13.88;4.70;;;12.00;99.90;;;;;;5033410;28;20029;-73
2023/06/17 05:13:32;;;;;;;5.72;4.78;;;11.90;99.90;;;;;;5033583;28;20105;-74
2023/06/17 05:15:58;;;;;;;9.82;4.68;;;11.90;99.90;;;;;;5015529;28;20025;-73
2023/06/17 05:18:24;;;;;;;10.88;5.47;;;12.00;99.90;;;;;;5033105;28;20096;-73
2023/06/17 05:20:49;;;;;;;9.43;3.95;;;12.00;99.90;;;;;;5033371;28;20093;-75
2023/06/17 05:23:15;;;;;;;8.50;5.20;;;12.10;99.90;;;;;;5015917;28;20071;-74
2023/06/17 05:25:40;;;;;;;6.28;4.32;;;12.20;99.90;;;;;;5033445;28;20079;-73
2023/06/17 05:28:07;;;;;;;8.65;4.72;;;12.20;99.90;;;;;;5014322;28;20108;-74
2023/06/17 05:30:32;;;;;;;6.93;5.35;;;12.30;99.90;;;;;;5015520;28;20485;-74
2023/06/17 05:32:58;;;;;;;9.18;4.78;;;12.40;99.90;;;;;;5033289;28;20030;-74
2023/06/17 05:35:24;;;;;;;10.68;4.78;;;12.50;99.90;;;;;;5032494;28;20181;-74
2023/06/17 05:37:49;;;;;;;9.05;4.35;;;12.50;99.90;;;;;;5032653;28;20470;-75
2023/06/17 05:40:15;;;;;;;7.25;4.43;;;12.70;99.90;;;;;;5032990;28;20092;-73
2023/06/17 05:42:41;;;;;;;8.15;4.20;;;12.70;99.90;;;;;;5032762;28;20061;-72
2023/06/17 05:45:07;;;;;;;7.43;4.50;;;12.80;99.90;;;;;;5032563;28;20412;-73
2023/06/17 05:47:32;;;;;;;8.32;5.55;;;12.80;99.90;;;;;;5032474;28;20096;-72
2023/06/17 05:49:58;;;;;;;8.77;4.55;;;12.90;99.90;;;;;;5032616;28;20072;-73
2023/06/17 05:52:24;;;;;;;7.45;4.40;;;12.90;99.90;;;;;;5032744;28;20025;-73
2023/06/17 05:54:49;;;;;;;6.75;4.80;;;13.00;99.90;;;;;;5033331;28;20032;-74
2023/06/17 05:57:15;;;;;;;8.27;4.60;;;13.00;99.90;;;;;;5032807;28;20140;-73
2023/06/17 05:59:41;;;;;;;11.00;5.10;;;13.00;99.90;;;;;;5032463;28;20375;-74
2023/06/17 06:02:07;;;;;;;9.68;4.80;;;13.00;99.90;;;;;;5032695;28;20411;-71
2023/06/17 06:04:32;;;;;;;9.40;4.50;;;13.00;99.90;;;;;;5025972;28;20025;-73
2023/06/17 06:06:58;;;;;;;6.63;4.45;;;13.10;99.90;;;;;;5012902;28;20060;-73
2023/06/17 06:09:23;;;;;;;6.72;4.95;;;13.10;99.90;;;;;;5029659;28;20026;-74
2023/06/17 06:11:50;;;;;;;11.32;4.97;;;13.10;99.90;;;;;;5032738;28;20176;-72
2023/06/17 06:14:15;;;;;;;11.88;4.63;;;13.20;99.90;;;;;;5032854;28;20498;-73
2023/06/17 06:16:41;;;;;;;7.43;4.45;;;13.30;99.90;;;;;;5032655;28;20022;-72
2023/06/17 06:19:06;;;;;;;8.55;4.70;;;13.40;99.90;;;;;;5028912;28;20030;-73
2023/06/17 06:21:32;;;;;;;6.80;4.40;;;13.50;99.90;;;;;;5011865;28;20091;-73
2023/06/17 06:23:59;;;;;;;10.25;4.72;;;13.60;99.90;;;;;;5012724;28;20029;-73
2023/06/17 06:26:26;;;;;;;8.45;4.20;;;13.70;99.90;;;;;;5012626;28;20026;-73
2023/06/17 06:28:52;;;;;;;6.70;4.00;;;13.80;99.90;;;;;;5012323;28;20032;-74
2023/06/17 06:31:18;;;;;;;9.70;4.65;;;13.80;99.90;;;;;;5012511;28;20021;-73
2023/06/17 06:33:44;;;;;;;8.80;4.55;;;14.00;99.90;;;;;;5003163;28;20054;-73
2023/06/17 06:36:10;;;;;;;10.63;4.68;;;14.00;99.90;;;;;;5011783;28;20057;-73
2023/06/17 06:38:36;;;;;;;7.80;4.57;;;14.10;99.90;;;;;;5012080;28;20033;-74
2023/06/17 06:41:02;;;;;;;8.13;4.50;;;14.20;99.90;;;;;;5012629;28;20014;-72
2023/06/17 06:43:27;;;;;;;8.07;4.60;;;14.30;99.90;;;;;;5012505;28;20096;-73
2023/06/17 06:45:53;;;;;;;13.57;4.97;;;14.40;99.90;;;;;;4993036;28;20033;-73
2023/06/17 06:48:19;;;;;;;11.02;4.47;;;14.50;99.90;;;;;;5012596;28;20380;-73
2023/06/17 06:50:45;;;;;;;9.18;4.80;;;14.50;99.90;;;;;;5005440;28;20015;-75
2023/06/17 06:53:11;;;;;;;11.93;4.85;;;14.70;99.90;;;;;;5008183;28;20029;-73
2023/06/17 06:55:36;;;;;;;9.30;4.70;;;14.80;99.90;;;;;;4989633;28;20065;-74
2023/06/17 06:58:02;;;;;;;11.35;4.25;;;14.90;99.90;;;;;;5009554;28;20345;-74
2023/06/17 07:00:27;;;;;;;7.53;4.35;;;15.00;99.90;;;;;;5000914;28;20029;-73
2023/06/17 07:02:53;;;;;;;7.90;4.15;;;15.20;99.90;;;;;;5010960;28;20014;-75
2023/06/17 07:05:22;;;;;;;7.88;4.85;;;15.20;99.90;;;;;;5012082;28;20474;-74
2023/06/17 07:07:47;;;;;;;6.82;4.18;;;15.40;99.90;;;;;;5012206;28;20456;-73
2023/06/17 07:10:13;;;;;;;5.93;4.20;;;15.50;99.90;;;;;;5012305;28;20076;-74
2023/06/17 07:12:41;;;;;;;10.18;4.35;;;15.60;99.90;;;;;;5012224;28;20455;-73
2023/06/17 07:15:07;;;;;;;9.45;4.35;;;15.70;99.90;;;;;;5011813;28;20026;-72
2023/06/17 07:17:32;;;;;;;10.40;4.22;;;15.80;99.90;;;;;;5011203;28;20034;-73
2023/06/17 07:19:59;;;;;;;9.13;4.22;;;16.00;99.90;;;;;;5017263;28;20049;-72
2023/06/17 07:22:25;;;;;;;9.52;4.88;;;16.10;99.90;;;;;;5030709;28;20029;-72
2023/06/17 07:24:51;;;;;;;7.30;4.30;;;16.20;99.90;;;;;;5029410;28;20132;-74
2023/06/17 07:27:16;;;;;;;16.08;5.07;;;16.30;99.90;;;;;;5012187;28;20109;-74
2023/06/17 07:29:42;;;;;;;6.90;4.05;;;16.40;99.90;;;;;;5029649;28;20025;-74
2023/06/17 07:32:08;;;;;;;6.97;4.65;;;16.50;99.90;;;;;;5030171;28;20580;-74
2023/06/17 07:34:34;;;;;;;7.03;4.28;;;16.60;99.90;;;;;;5030772;28;20531;-74
2023/06/17 07:37:00;;;;;;;7.35;4.65;;;16.60;99.90;;;;;;5027242;28;20434;-75
2023/06/17 07:39:26;;;;;;;9.45;4.32;;;16.70;99.90;;;;;;5023326;28;20026;-72
2023/06/17 07:41:51;;;;;;;7.68;4.20;;;16.70;99.90;;;;;;5031761;28;20021;-72
2023/06/17 07:44:17;;;;;;;5.95;4.20;;;16.80;99.90;;;;;;5032319;28;20037;-75
2023/06/17 07:46:43;;;;;;;5.90;3.75;;;16.90;99.90;;;;;;5008680;28;20021;-74
2023/06/17 07:49:09;;;;;;;5.93;4.10;;;17.00;99.90;;;;;;5025602;28;20120;-74
2023/06/17 07:51:35;;;;;;;8.35;3.83;;;17.10;99.90;;;;;;5034654;28;20096;-74
2023/06/17 07:54:01;;;;;;;5.63;4.07;;;17.10;99.90;;;;;;5036075;28;20080;-75
2023/06/17 07:56:29;;;;;;;8.18;3.50;;;17.30;99.90;;;;;;5035965;28;20040;-73
2023/06/17 07:58:55;;;;;;;5.97;4.22;;;17.30;99.90;;;;;;5035091;28;20033;-72
2023/06/17 08:01:22;;;;;;;9.20;4.70;;;17.40;99.30;;;;;;5035165;28;20025;-74
2023/06/17 08:03:48;;;;;;;5.47;4.30;;;17.40;99.80;;;;;;5034990;28;20021;-73
2023/06/17 08:06:13;;;;;;;10.63;4.38;;;17.40;99.80;;;;;;5035398;28;20387;-72
2023/06/17 08:08:40;;;;;;;7.90;3.42;;;17.50;99.90;;;;;;5017905;28;20167;-72
2023/06/17 08:11:06;;;;;;;6.55;3.80;;;17.60;99.90;;;;;;5035028;28;20024;-73
2023/06/17 08:13:32;;;;;;;4.72;3.20;;;17.70;99.00;;;;;;5034569;28;20013;-73
2023/06/17 08:15:58;;;;;;;7.45;3.60;;;17.70;97.50;;;;;;5028612;28;20023;-73
2023/06/17 08:18:23;;;;;;;4.38;2.88;;;17.80;95.70;;;;;;5034990;28;20040;-73
2023/06/17 08:20:49;;;;;;;5.30;3.10;;;17.80;93.90;;;;;;5005067;28;20145;-72
2023/06/17 08:23:15;;;;;;;10.02;3.67;;;17.90;91.90;;;;;;5014802;28;20108;-73
2023/06/17 08:25:41;;;;;;;9.00;3.08;;;17.90;90.30;;;;;;5015458;28;20468;-73
2023/06/17 08:28:06;;;;;;;8.05;2.80;;;18.00;88.80;;;;;;5007432;28;20029;-73
2023/06/17 08:30:32;;;;;;;7.72;3.17;;;18.00;87.20;;;;;;5008943;28;20367;-73
2023/06/17 08:32:57;;;;;;;6.47;3.00;;;18.10;86.10;;;;;;4998942;28;20037;-74
2023/06/17 08:35:23;;;;;;;5.28;3.17;;;18.10;84.10;;;;;;4994990;28;20026;-73
2023/06/17 08:37:49;;;;;;;6.88;2.95;;;18.20;82.70;;;;;;4995206;28;20030;-72
2023/06/17 08:40:17;;;;;;;5.75;3.35;;;18.30;82.30;;;;;;4986657;28;20456;-74
2023/06/17 08:42:43;;;;;;;4.75;2.83;;;18.40;81.80;;;;;;4995740;28;20027;-74
2023/06/17 08:45:10;;;;;;;6.90;3.35;;;18.40;80.60;;;;;;4993352;28;20092;-75
2023/06/17 08:47:36;;;;;;;6.00;3.00;;;18.40;79.60;;;;;;4995105;28;20431;-74
2023/06/17 08:50:02;;;;;;;4.90;2.83;;;18.50;78.90;;;;;;4995085;28;20109;-74
2023/06/17 08:52:31;;;;;;;5.65;3.17;;;18.50;78.60;;;;;;4995283;28;20527;-74
2023/06/17 08:54:59;;;;;;;5.18;2.92;;;18.50;78.60;;;;;;4993998;28;20053;-75
2023/06/17 08:57:27;;;;;;;6.53;3.00;;;18.70;78.70;;;;;;4995068;28;20034;-74
2023/06/17 08:59:53;;;;;;;4.47;3.20;;;18.70;78.40;;;;;;4993785;28;20025;-73
2023/06/17 09:02:19;;;;;;;4.53;2.75;;;18.80;78.20;;;;;;4995145;28;20380;-75
2023/06/17 09:04:44;;;;;;;6.00;2.97;;;18.90;78.10;;;;;;4995546;28;20046;-75
2023/06/17 09:07:11;;;;;;;6.93;3.13;;;19.00;78.00;;;;;;4995223;28;20026;-74
2023/06/17 09:09:37;;;;;;;6.25;3.45;;;19.00;77.20;;;;;;4995167;28;20491;-74
2023/06/17 09:12:05;;;;;;;7.40;3.70;;;19.00;76.50;;;;;;4994782;28;20046;-74
2023/06/17 09:14:31;;;;;;;5.97;3.70;;;18.90;76.10;;;;;;4994986;28;20057;-74
2023/06/17 09:16:58;;;;;;;4.78;3.30;;;19.00;76.10;;;;;;4995044;28;20472;-75
2023/06/17 09:19:24;;;;;;;12.20;4.10;;;19.00;75.80;;;;;;4995575;28;20093;-73
2023/06/17 09:21:49;;;;;;;5.43;3.20;;;18.90;75.90;;;;;;5014478;28;20455;-74
2023/06/17 09:24:15;;;;;;;9.90;3.30;;;18.90;75.80;;;;;;4996842;28;20152;-74
2023/06/17 09:26:43;;;;;;;6.63;3.50;;;18.80;75.50;;;;;;5014445;28;20072;-74
2023/06/17 09:29:13;;;;;;;5.97;2.88;;;18.80;75.60;;;;;;5014361;28;20514;-74
2023/06/17 09:31:48;;;;;;;5.83;3.10;;;18.80;75.90;;;;;;5014526;28;20036;-75
2023/06/17 09:34:15;;;;;;;5.63;3.40;;;18.80;76.00;;;;;;5014309;28;20048;-75
2023/06/17 09:36:41;;;;;;;15.65;3.03;;;18.80;76.00;;;;;;5014294;28;20033;-75
2023/06/17 09:39:09;;;;;;;5.53;3.15;;;18.80;75.80;;;;;;5014180;28;20169;-74
2023/06/17 09:41:40;;;;;;;8.43;3.20;;;18.90;75.80;;;;;;4996256;28;20029;-75
2023/06/17 09:44:06;;;;;;;4.35;3.00;;;18.90;75.90;;;;;;4996568;28;20172;-74
2023/06/17 09:46:37;;;;;;;8.40;3.10;;;18.90;76.00;;;;;;5014250;28;20475;-74
2023/06/17 09:49:15;;;;;;;6.72;3.03;;;18.90;76.10;;;;;;5014182;28;20024;-75
2023/06/17 09:51:41;;;;;;;7.18;2.88;;;18.90;76.20;;;;;;5013901;28;20030;-75
2023/06/17 09:54:08;;;;;;;6.28;3.83;;;18.90;76.20;;;;;;5013757;28;20273;-74
2023/06/17 09:56:35;;;;;;;5.70;3.20;;;18.90;76.50;;;;;;5013830;28;20486;-74
2023/06/17 09:59:03;;;;;;;7.90;3.60;;;18.90;76.80;;;;;;5013849;28;20025;-74
2023/06/17 10:01:33;;;;;;;5.90;3.20;;;19.00;77.00;;;;;;5013810;28;20475;-75
2023/06/17 10:04:02;;;;;;;5.70;3.20;;;19.00;77.00;;;;;;5013797;28;20034;-75
2023/06/17 10:06:35;;;;;;;3.95;3.15;;;19.00;77.10;;;;;;5013966;28;20121;-73
2023/06/17 10:09:07;;;;;;;10.05;3.13;;;19.00;77.60;;;;;;5013858;28;20460;-75
2023/06/17 10:11:39;;;;;;;8.68;4.07;;;18.90;78.20;;;;;;5013781;28;20022;-75
2023/06/17 10:14:11;;;;;;;10.10;3.78;;;18.90;79.00;;;;;;5013046;28;20029;-74
2023/06/17 10:16:42;;;;;;;12.05;3.88;;;18.80;80.10;;;;;;5013570;28;20060;-76
2023/06/17 10:19:10;;;;;;;5.30;3.70;;;18.80;82.00;;;;;;5013395;28;20068;-74
2023/06/17 10:21:46;;;;;;;5.00;3.33;;;18.80;83.60;;;;;;5013562;28;20046;-75
2023/06/17 10:24:13;;;;;;;6.65;3.10;;;18.70;85.80;;;;;;5013324;28;20026;-74
2023/06/17 10:26:39;;;;;;;6.32;3.70;;;18.70;85.90;;;;;;5013136;28;20072;-74
2023/06/17 10:29:07;;;;;;;6.05;3.53;;;18.60;86.40;;;;;;5013251;28;20520;-73
2023/06/17 10:31:42;;;;;;;8.38;3.42;;;18.60;88.30;;;;;;4995369;28;20448;-74
2023/06/17 10:34:21;;;;;;;4.15;3.35;;;18.60;90.40;;;;;;4995797;28;20230;-73
2023/06/17 10:36:58;;;;;;;8.90;4.00;;;18.60;91.30;;;;;;5013168;28;20022;-75
2023/06/17 10:39:24;;;;;;;8.95;3.30;;;18.60;92.10;;;;;;5012944;28;20368;-72
2023/06/17 10:41:50;;;;;;;5.65;3.33;;;18.60;92.80;;;;;;5013232;28;20018;-74
2023/06/17 10:44:46;;;;;;;5.32;3.13;;;18.60;93.70;;;;;;5012945;28;20032;-73
2023/06/17 10:47:20;;;;;;;5.60;3.42;;;18.60;94.10;;;;;;5012138;28;20041;-74
2023/06/17 10:49:48;;;;;;;10.77;3.47;;;18.50;94.10;;;;;;5013154;28;20360;-73
2023/06/17 10:52:15;;;;;;;5.68;3.58;;;18.50;94.10;;;;;;5013309;28;20026;-72
2023/06/17 10:54:49;;;;;;;7.90;3.33;;;18.50;94.00;;;;;;5013018;28;20026;-73
2023/06/17 10:57:14;;;;;;;4.70;3.30;;;18.50;93.50;;;;;;5013043;28;20026;-75
2023/06/17 10:59:40;;;;;;;13.68;3.47;;;18.60;93.30;;;;;;5012868;28;20405;-75
2023/06/17 11:02:07;;;;;;;9.18;3.85;;;18.60;93.20;;;;;;4995158;28;20021;-75
2023/06/17 11:04:42;;;;;;;5.05;2.90;;;18.60;93.10;;;;;;5012837;28;20049;-74
2023/06/17 11:07:08;;;;;;;6.68;3.53;;;18.60;93.30;;;;;;5012741;28;20033;-76
2023/06/17 11:09:36;;;;;;;5.68;3.63;;;18.70;93.60;;;;;;5013082;28;20452;-74
2023/06/17 11:12:03;;;;;;;8.77;4.28;;;18.70;94.00;;;;;;5012779;28;20061;-73
2023/06/17 11:14:30;;;;;;;6.13;4.32;;;18.80;94.40;;;;;;4995195;28;20026;-73
2023/06/17 11:16:57;;;;;;;10.43;4.30;;;18.80;94.90;;;;;;5012644;28;20026;-75
2023/06/17 11:19:23;;;;;;;5.78;4.25;;;18.80;95.30;;;;;;4994764;28;20030;-73
2023/06/17 11:21:57;;;;;;;10.18;4.43;;;18.80;95.70;;;;;;5012642;28;20022;-73
2023/06/17 11:24:23;;;;;;;5.53;4.13;;;18.90;96.10;;;;;;5012620;28;20018;-73
2023/06/17 11:26:49;;;;;;;7.22;3.85;;;18.90;96.00;;;;;;5015960;28;20472;-73
2023/06/17 11:29:15;;;;;;;5.07;3.45;;;18.90;96.10;;;;;;5016564;28;20030;-73
2023/06/17 11:31:41;;;;;;;8.88;3.83;;;19.00;96.30;;;;;;5016570;28;20072;-73
2023/06/17 11:34:07;;;;;;;8.05;4.05;;;18.90;96.30;;;;;;5016530;28;20033;-73
2023/06/17 11:36:37;;;;;;;5.82;3.63;;;18.90;96.30;;;;;;5016683;28;20026;-73
2023/06/17 11:39:02;;;;;;;5.10;4.22;;;19.00;96.90;;;;;;5016392;28;20033;-73
2023/06/17 11:41:28;;;;;;;7.40;4.57;;;19.00;97.00;;;;;;4999058;28;20511;-74
2023/06/17 11:43:54;;;;;;;4.90;3.70;;;19.10;97.30;;;;;;5016354;28;20571;-73
2023/06/17 11:46:21;;;;;;;8.40;4.43;;;19.20;97.30;;;;;;5016373;28;20084;-75
2023/06/17 11:48:48;;;;;;;7.22;3.92;;;19.30;97.20;;;;;;4998568;28;20072;-74
2023/06/17 11:51:18;;;;;;;6.55;3.47;;;19.40;97.00;;;;;;5016350;28;20162;-73
2023/06/17 11:53:48;;;;;;;6.43;3.38;;;19.50;96.90;;;;;;4998707;28;20272;-74
2023/06/17 11:56:15;;;;;;;;;;;19.60;96.10;;;;;;5016733;28;20032;-74
2023/06/17 11:58:42;;;;;;;6.53;3.45;;;19.80;95.50;;;;;;5016030;28;20051;-74
2023/06/17 12:01:09;;;;;;;6.28;3.60;;;19.90;95.10;;;;;;5015698;28;20071;-75
2023/06/17 12:03:36;;;;;;;10.00;3.25;;;20.00;94.40;;;;;;5016458;28;20030;-72
2023/06/17 12:06:02;;;;;;;4.75;3.30;;;20.10;93.40;;;;;;5015884;28;20021;-72
2023/06/17 12:08:38;;;;;;;5.43;3.10;;;20.30;92.40;;;;;;5015815;28;20037;-73
2023/06/17 12:11:07;;;;;;;5.97;2.50;;;20.50;91.10;;;;;;5015788;28;20360;-73
2023/06/17 12:13:42;;;;;;;4.35;3.03;;;20.50;89.60;;;;;;5015836;28;20024;-72
2023/06/17 12:16:23;;;;;;;11.05;3.50;;;20.50;86.60;;;;;;5016043;28;20056;-72
2023/06/17 12:18:50;;;;;;;4.50;3.40;;;20.60;84.50;;;;;;5015806;28;20030;-73
2023/06/17 12:21:18;;;;;;;6.80;3.53;;;20.60;82.50;;;;;;5015490;28;20045;-72
2023/06/17 12:23:44;;;;;;;8.30;2.95;;;20.50;80.50;;;;;;5015622;28;20141;-74
2023/06/17 12:26:10;;;;;;;6.28;3.50;;;20.50;79.20;;;;;;5015517;28;20024;-74
2023/06/17 12:28:37;;;;;;;4.93;3.25;;;20.60;78.90;;;;;;5015772;28;20109;-74
2023/06/17 12:31:03;;;;;;;4.22;3.13;;;20.60;77.90;;;;;;4998053;28;20029;-74
2023/06/17 12:33:28;;;;;;;4.80;3.25;;;20.50;77.40;;;;;;4997945;28;20080;-75
2023/06/17 12:35:54;;;;;;;4.07;2.92;;;20.40;76.90;;;;;;5014719;28;20102;-73
2023/06/17 12:38:23;;;;;;;5.20;3.30;;;20.40;77.60;;;;;;5015423;28;20033;-72
2023/06/17 12:40:50;;;;;;;5.13;3.33;;;20.40;77.70;;;;;;5015194;28;20100;-73
2023/06/17 12:43:15;;;;;;;10.27;4.00;;;20.30;78.00;;;;;;5015513;28;20017;-73